sensor_id;sensor_type;location;lat;lon;timestamp;pressure;altitude;pressure_sealevel;temperature;humidity
74169;BME280;62523;53.336;83.690;2023-12-22T00:04:17;100882.47;;;-3.89;100.00
74169;BME280;62523;53.336;83.690;2023-12-22T00:09:18;100877.34;;;-3.87;100.00
74169;BME280;62523;53.336;83.690;2023-12-22T00:14:20;100890.28;;;-3.86;100.00
74169;BME280;62523;53.336;83.690;2023-12-22T00:19:21;100879.94;;;-3.87;100.00
74169;BME280;62523;53.336;83.690;2023-12-22T00:24:23;100885.97;;;-3.87;100.00
74169;BME280;62523;53.336;83.690;2023-12-22T00:29:24;100890.28;;;-3.86;100.00
74169;BME280;62523;53.336;83.690;2023-12-22T00:34:25;100889.25;;;-3.93;100.00
74169;BME280;62523;53.336;83.690;2023-12-22T00:39:27;100900.50;;;-3.89;100.00
74169;BME280;62523;53.336;83.690;2023-12-22T00:44:28;100889.28;;;-3.91;100.00
74169;BME280;62523;53.336;83.690;2023-12-22T00:49:30;100883.25;;;-3.92;100.00
74169;BME280;62523;53.336;83.690;2023-12-22T00:54:32;100904.69;;;-3.93;100.00
74169;BME280;62523;53.336;83.690;2023-12-22T00:59:33;100904.63;;;-3.94;100.00
74169;BME280;62523;53.336;83.690;2023-12-22T01:04:35;100901.16;;;-3.96;100.00
74169;BME280;62523;53.336;83.690;2023-12-22T01:09:36;100915.78;;;-3.95;100.00
74169;BME280;62523;53.336;83.690;2023-12-22T01:14:40;100914.97;;;-3.93;100.00
74169;BME280;62523;53.336;83.690;2023-12-22T01:19:42;100920.13;;;-3.93;100.00
74169;BME280;62523;53.336;83.690;2023-12-22T01:24:44;100909.03;;;-3.90;100.00
74169;BME280;62523;53.336;83.690;2023-12-22T01:29:46;100912.34;;;-3.94;100.00
74169;BME280;62523;53.336;83.690;2023-12-22T01:34:47;100895.34;;;-3.89;100.00
74169;BME280;62523;53.336;83.690;2023-12-22T01:39:48;100900.41;;;-3.92;100.00
74169;BME280;62523;53.336;83.690;2023-12-22T01:44:50;100926.16;;;-3.92;100.00
74169;BME280;62523;53.336;83.690;2023-12-22T01:49:52;100933.94;;;-3.91;100.00
74169;BME280;62523;53.336;83.690;2023-12-22T01:54:54;100943.38;;;-3.89;100.00
74169;BME280;62523;53.336;83.690;2023-12-22T01:59:56;100957.16;;;-3.87;100.00
74169;BME280;62523;53.336;83.690;2023-12-22T02:04:59;100962.38;;;-3.86;100.00
74169;BME280;62523;53.336;83.690;2023-12-22T02:10:01;100940.13;;;-3.84;100.00
74169;BME280;62523;53.336;83.690;2023-12-22T02:15:05;100940.06;;;-3.85;100.00
74169;BME280;62523;53.336;83.690;2023-12-22T02:20:09;100937.47;;;-3.87;100.00
74169;BME280;62523;53.336;83.690;2023-12-22T02:25:11;100955.38;;;-3.90;100.00
74169;BME280;62523;53.336;83.690;2023-12-22T02:30:32;100978.47;;;-3.93;100.00
74169;BME280;62523;53.336;83.690;2023-12-22T02:35:36;100966.53;;;-3.91;100.00
74169;BME280;62523;53.336;83.690;2023-12-22T02:40:39;100966.41;;;-3.94;100.00
74169;BME280;62523;53.336;83.690;2023-12-22T02:45:41;100963.78;;;-3.97;100.00
74169;BME280;62523;53.336;83.690;2023-12-22T02:50:43;100970.53;;;-4.01;100.00
74169;BME280;62523;53.336;83.690;2023-12-22T02:55:44;100961.06;;;-4.02;100.00
74169;BME280;62523;53.336;83.690;2023-12-22T03:00:45;100964.59;;;-3.98;100.00
74169;BME280;62523;53.336;83.690;2023-12-22T03:05:47;100974.88;;;-4.00;100.00
74169;BME280;62523;53.336;83.690;2023-12-22T03:10:49;100964.63;;;-3.97;100.00
74169;BME280;62523;53.336;83.690;2023-12-22T03:15:50;100956.84;;;-4.00;100.00
74169;BME280;62523;53.336;83.690;2023-12-22T03:20:51;100950.97;;;-3.94;100.00
74169;BME280;62523;53.336;83.690;2023-12-22T03:25:52;100948.50;;;-3.91;100.00
74169;BME280;62523;53.336;83.690;2023-12-22T03:30:54;100964.13;;;-3.85;100.00
74169;BME280;62523;53.336;83.690;2023-12-22T03:35:55;100958.88;;;-3.88;100.00
74169;BME280;62523;53.336;83.690;2023-12-22T03:40:57;100969.31;;;-3.83;100.00
74169;BME280;62523;53.336;83.690;2023-12-22T03:45:58;100973.81;;;-3.76;100.00
74169;BME280;62523;53.336;83.690;2023-12-22T03:50:59;100975.00;;;-3.65;100.00
74169;BME280;62523;53.336;83.690;2023-12-22T03:56:01;100973.53;;;-3.55;100.00
74169;BME280;62523;53.336;83.690;2023-12-22T04:01:02;100979.69;;;-3.50;100.00
74169;BME280;62523;53.336;83.690;2023-12-22T04:06:04;100975.19;;;-3.57;100.00
74169;BME280;62523;53.336;83.690;2023-12-22T04:11:05;100982.03;;;-3.58;100.00
74169;BME280;62523;53.336;83.690;2023-12-22T04:16:06;100994.97;;;-3.56;100.00
74169;BME280;62523;53.336;83.690;2023-12-22T04:21:17;100990.38;;;-3.66;100.00
74169;BME280;62523;53.336;83.690;2023-12-22T04:26:18;101009.47;;;-3.60;100.00
74169;BME280;62523;53.336;83.690;2023-12-22T04:31:20;101011.59;;;-3.75;100.00
74169;BME280;62523;53.336;83.690;2023-12-22T04:36:21;101016.88;;;-3.71;100.00
74169;BME280;62523;53.336;83.690;2023-12-22T04:41:24;101003.88;;;-3.75;100.00
74169;BME280;62523;53.336;83.690;2023-12-22T04:46:25;101029.88;;;-3.66;100.00
74169;BME280;62523;53.336;83.690;2023-12-22T04:51:27;101023.19;;;-3.61;100.00
74169;BME280;62523;53.336;83.690;2023-12-22T04:56:28;101018.81;;;-3.63;100.00
74169;BME280;62523;53.336;83.690;2023-12-22T05:01:30;101029.34;;;-3.56;100.00
74169;BME280;62523;53.336;83.690;2023-12-22T05:06:31;101031.28;;;-3.47;100.00
74169;BME280;62523;53.336;83.690;2023-12-22T05:11:32;101010.09;;;-3.37;100.00
74169;BME280;62523;53.336;83.690;2023-12-22T05:16:34;101007.78;;;-3.27;100.00
74169;BME280;62523;53.336;83.690;2023-12-22T05:21:35;101017.44;;;-3.20;100.00
74169;BME280;62523;53.336;83.690;2023-12-22T05:26:37;101015.91;;;-3.12;100.00
74169;BME280;62523;53.336;83.690;2023-12-22T05:31:38;100980.56;;;-3.18;100.00
74169;BME280;62523;53.336;83.690;2023-12-22T05:36:40;101006.59;;;-3.07;100.00
74169;BME280;62523;53.336;83.690;2023-12-22T05:41:42;100973.91;;;-3.10;100.00
74169;BME280;62523;53.336;83.690;2023-12-22T05:46:43;100986.31;;;-2.93;100.00
74169;BME280;62523;53.336;83.690;2023-12-22T05:51:45;100967.50;;;-2.89;100.00
74169;BME280;62523;53.336;83.690;2023-12-22T05:56:46;100980.28;;;-2.94;100.00
74169;BME280;62523;53.336;83.690;2023-12-22T06:01:48;100990.06;;;-2.80;100.00
74169;BME280;62523;53.336;83.690;2023-12-22T06:06:49;100984.13;;;-2.78;100.00
74169;BME280;62523;53.336;83.690;2023-12-22T06:11:50;100998.56;;;-2.86;100.00
74169;BME280;62523;53.336;83.690;2023-12-22T06:16:52;100994.97;;;-2.91;100.00
74169;BME280;62523;53.336;83.690;2023-12-22T06:21:54;100985.69;;;-2.84;100.00
74169;BME280;62523;53.336;83.690;2023-12-22T06:26:56;100977.94;;;-2.86;100.00
74169;BME280;62523;53.336;83.690;2023-12-22T06:31:57;100985.13;;;-2.71;100.00
74169;BME280;62523;53.336;83.690;2023-12-22T06:36:58;100968.59;;;-2.81;100.00
74169;BME280;62523;53.336;83.690;2023-12-22T06:41:59;100950.19;;;-2.58;100.00
74169;BME280;62523;53.336;83.690;2023-12-22T06:47:01;100955.84;;;-2.73;100.00
74169;BME280;62523;53.336;83.690;2023-12-22T06:52:02;100956.53;;;-2.80;100.00
74169;BME280;62523;53.336;83.690;2023-12-22T06:57:04;100948.97;;;-2.74;100.00
74169;BME280;62523;53.336;83.690;2023-12-22T07:02:05;100935.91;;;-2.80;100.00
74169;BME280;62523;53.336;83.690;2023-12-22T07:07:07;100933.44;;;-2.77;100.00
74169;BME280;62523;53.336;83.690;2023-12-22T07:12:08;100924.22;;;-2.66;100.00
74169;BME280;62523;53.336;83.690;2023-12-22T07:17:10;100928.44;;;-2.70;100.00
74169;BME280;62523;53.336;83.690;2023-12-22T07:22:12;100907.88;;;-2.65;100.00
74169;BME280;62523;53.336;83.690;2023-12-22T07:27:15;100907.22;;;-2.56;100.00
74169;BME280;62523;53.336;83.690;2023-12-22T07:32:17;100883.16;;;-2.16;100.00
74169;BME280;62523;53.336;83.690;2023-12-22T07:37:18;100903.72;;;-2.20;100.00
74169;BME280;62523;53.336;83.690;2023-12-22T07:42:20;100909.91;;;-2.12;100.00
74169;BME280;62523;53.336;83.690;2023-12-22T07:47:21;100905.53;;;-2.16;100.00
74169;BME280;62523;53.336;83.690;2023-12-22T07:52:22;100902.84;;;-2.21;100.00
74169;BME280;62523;53.336;83.690;2023-12-22T07:57:24;100872.47;;;-2.34;100.00
74169;BME280;62523;53.336;83.690;2023-12-22T08:02:25;100903.25;;;-2.42;100.00
74169;BME280;62523;53.336;83.690;2023-12-22T08:07:27;100897.56;;;-2.27;100.00
74169;BME280;62523;53.336;83.690;2023-12-22T08:12:28;100901.63;;;-2.38;100.00
74169;BME280;62523;53.336;83.690;2023-12-22T08:17:29;100904.03;;;-2.46;100.00
74169;BME280;62523;53.336;83.690;2023-12-22T08:22:31;100911.91;;;-2.40;100.00
74169;BME280;62523;53.336;83.690;2023-12-22T08:27:33;100919.59;;;-2.43;100.00
74169;BME280;62523;53.336;83.690;2023-12-22T08:32:34;100920.41;;;-2.44;100.00
74169;BME280;62523;53.336;83.690;2023-12-22T08:37:36;100916.06;;;-2.47;100.00
74169;BME280;62523;53.336;83.690;2023-12-22T08:42:38;100909.94;;;-2.50;100.00
74169;BME280;62523;53.336;83.690;2023-12-22T08:47:40;100905.88;;;-2.40;100.00
74169;BME280;62523;53.336;83.690;2023-12-22T08:52:41;100915.97;;;-2.50;100.00
74169;BME280;62523;53.336;83.690;2023-12-22T08:57:42;100900.63;;;-2.43;100.00
74169;BME280;62523;53.336;83.690;2023-12-22T09:02:44;100915.69;;;-2.63;100.00
74169;BME280;62523;53.336;83.690;2023-12-22T09:07:45;100919.00;;;-2.68;100.00
74169;BME280;62523;53.336;83.690;2023-12-22T09:12:47;100921.44;;;-2.75;100.00
74169;BME280;62523;53.336;83.690;2023-12-22T09:17:48;100922.44;;;-2.69;100.00
74169;BME280;62523;53.336;83.690;2023-12-22T09:22:50;100927.41;;;-2.76;100.00
74169;BME280;62523;53.336;83.690;2023-12-22T09:27:51;100934.09;;;-2.84;100.00
74169;BME280;62523;53.336;83.690;2023-12-22T09:32:52;100938.06;;;-2.99;100.00
74169;BME280;62523;53.336;83.690;2023-12-22T09:37:54;100943.94;;;-3.04;100.00
74169;BME280;62523;53.336;83.690;2023-12-22T09:42:55;100940.50;;;-3.03;100.00
74169;BME280;62523;53.336;83.690;2023-12-22T09:47:59;100940.50;;;-3.03;100.00
74169;BME280;62523;53.336;83.690;2023-12-22T09:53:02;100934.47;;;-3.04;100.00
74169;BME280;62523;53.336;83.690;2023-12-22T09:58:04;100932.84;;;-3.00;100.00
74169;BME280;62523;53.336;83.690;2023-12-22T10:03:07;100910.56;;;-2.98;100.00
74169;BME280;62523;53.336;83.690;2023-12-22T10:08:10;100914.97;;;-2.93;100.00
74169;BME280;62523;53.336;83.690;2023-12-22T10:13:13;100920.19;;;-2.91;100.00
74169;BME280;62523;53.336;83.690;2023-12-22T10:18:16;100925.44;;;-2.86;100.00
74169;BME280;62523;53.336;83.690;2023-12-22T10:23:18;100917.72;;;-2.86;100.00
74169;BME280;62523;53.336;83.690;2023-12-22T10:28:19;100910.81;;;-2.88;100.00
74169;BME280;62523;53.336;83.690;2023-12-22T10:33:25;100906.53;;;-2.87;100.00
74169;BME280;62523;53.336;83.690;2023-12-22T10:38:35;100924.78;;;-2.79;100.00
74169;BME280;62523;53.336;83.690;2023-12-22T10:43:38;100917.81;;;-2.82;100.00
74169;BME280;62523;53.336;83.690;2023-12-22T10:48:40;100906.63;;;-2.82;100.00
74169;BME280;62523;53.336;83.690;2023-12-22T10:53:42;100902.38;;;-2.80;100.00
74169;BME280;62523;53.336;83.690;2023-12-22T10:58:43;100906.03;;;-2.72;100.00
74169;BME280;62523;53.336;83.690;2023-12-22T11:03:50;100915.56;;;-2.68;100.00
74169;BME280;62523;53.336;83.690;2023-12-22T11:08:53;100911.38;;;-2.64;100.00
74169;BME280;62523;53.336;83.690;2023-12-22T11:13:57;100901.03;;;-2.64;100.00
74169;BME280;62523;53.336;83.690;2023-12-22T11:19:02;100896.81;;;-2.61;100.00
74169;BME280;62523;53.336;83.690;2023-12-22T11:24:04;100889.09;;;-2.59;100.00
74169;BME280;62523;53.336;83.690;2023-12-22T11:29:07;100890.88;;;-2.57;100.00
74169;BME280;62523;53.336;83.690;2023-12-22T11:34:11;100893.47;;;-2.57;100.00
74169;BME280;62523;53.336;83.690;2023-12-22T11:39:13;100898.66;;;-2.55;100.00
74169;BME280;62523;53.336;83.690;2023-12-22T11:44:15;100903.97;;;-2.49;100.00
74169;BME280;62523;53.336;83.690;2023-12-22T11:49:20;100891.88;;;-2.52;100.00
74169;BME280;62523;53.336;83.690;2023-12-22T11:54:43;100901.47;;;-2.44;100.00
74169;BME280;62523;53.336;83.690;2023-12-22T11:59:46;100906.41;;;-2.55;100.00
74169;BME280;62523;53.336;83.690;2023-12-22T12:04:49;100912.53;;;-2.50;100.00
74169;BME280;62523;53.336;83.690;2023-12-22T12:09:52;100905.59;;;-2.53;100.00
74169;BME280;62523;53.336;83.690;2023-12-22T12:14:58;100909.03;;;-2.54;100.00
74169;BME280;62523;53.336;83.690;2023-12-22T12:20:06;100915.78;;;-2.59;100.00
74169;BME280;62523;53.336;83.690;2023-12-22T12:25:11;100905.63;;;-2.51;100.00
74169;BME280;62523;53.336;83.690;2023-12-22T12:30:13;100914.91;;;-2.59;100.00
74169;BME280;62523;53.336;83.690;2023-12-22T12:35:19;100918.31;;;-2.62;100.00
74169;BME280;62523;53.336;83.690;2023-12-22T12:40:24;100911.38;;;-2.63;100.00
74169;BME280;62523;53.336;83.690;2023-12-22T12:45:26;100913.09;;;-2.63;100.00
74169;BME280;62523;53.336;83.690;2023-12-22T12:50:29;100901.00;;;-2.66;100.00
74169;BME280;62523;53.336;83.690;2023-12-22T12:55:32;100900.97;;;-2.68;100.00
74169;BME280;62523;53.336;83.690;2023-12-22T13:00:33;100903.38;;;-2.75;100.00
74169;BME280;62523;53.336;83.690;2023-12-22T13:05:38;100895.50;;;-2.80;100.00
74169;BME280;62523;53.336;83.690;2023-12-22T13:10:39;100897.22;;;-2.80;100.00
74169;BME280;62523;53.336;83.690;2023-12-22T13:15:42;100888.53;;;-2.84;100.00
74169;BME280;62523;53.336;83.690;2023-12-22T13:20:44;100896.41;;;-2.78;100.00
74169;BME280;62523;53.336;83.690;2023-12-22T13:25:46;100892.97;;;-2.78;100.00
74169;BME280;62523;53.336;83.690;2023-12-22T13:30:47;100891.31;;;-2.76;100.00
74169;BME280;62523;53.336;83.690;2023-12-22T13:35:49;100882.66;;;-2.78;100.00
74169;BME280;62523;53.336;83.690;2023-12-22T13:40:50;100880.94;;;-2.79;100.00
74169;BME280;62523;53.336;83.690;2023-12-22T13:45:52;100890.41;;;-2.78;100.00
74169;BME280;62523;53.336;83.690;2023-12-22T13:50:58;100881.00;;;-2.76;100.00
74169;BME280;62523;53.336;83.690;2023-12-22T13:56:00;100882.00;;;-2.70;100.00
74169;BME280;62523;53.336;83.690;2023-12-22T14:01:15;100870.81;;;-2.70;100.00
74169;BME280;62523;53.336;83.690;2023-12-22T14:06:17;100876.88;;;-2.68;100.00
74169;BME280;62523;53.336;83.690;2023-12-22T14:11:20;100876.97;;;-2.63;100.00
74169;BME280;62523;53.336;83.690;2023-12-22T14:16:21;100884.91;;;-2.54;100.00
74169;BME280;62523;53.336;83.690;2023-12-22T14:21:22;100876.25;;;-2.56;100.00
74169;BME280;62523;53.336;83.690;2023-12-22T14:26:28;100872.97;;;-2.51;100.00
74169;BME280;62523;53.336;83.690;2023-12-22T14:31:33;100878.97;;;-2.50;100.00
74169;BME280;62523;53.336;83.690;2023-12-22T14:36:34;100890.28;;;-2.45;100.00
74169;BME280;62523;53.336;83.690;2023-12-22T14:41:36;100885.16;;;-2.43;100.00
74169;BME280;62523;53.336;83.690;2023-12-22T14:46:38;100881.03;;;-2.35;100.00
74169;BME280;62523;53.336;83.690;2023-12-22T14:51:40;100875.94;;;-2.31;100.00
74169;BME280;62523;53.336;83.690;2023-12-22T14:56:42;100879.31;;;-2.35;100.00
74169;BME280;62523;53.336;83.690;2023-12-22T15:01:44;100872.47;;;-2.33;100.00
74169;BME280;62523;53.336;83.690;2023-12-22T15:06:46;100882.84;;;-2.31;100.00
74169;BME280;62523;53.336;83.690;2023-12-22T15:11:47;100888.03;;;-2.30;100.00
74169;BME280;62523;53.336;83.690;2023-12-22T15:16:49;100878.56;;;-2.29;100.00
74169;BME280;62523;53.336;83.690;2023-12-22T15:21:52;100871.69;;;-2.29;100.00
74169;BME280;62523;53.336;83.690;2023-12-22T15:26:55;100876.91;;;-2.27;100.00
74169;BME280;62523;53.336;83.690;2023-12-22T15:31:56;100873.53;;;-2.23;100.00
74169;BME280;62523;53.336;83.690;2023-12-22T15:37:01;100880.34;;;-2.27;100.00
74169;BME280;62523;53.336;83.690;2023-12-22T15:42:03;100877.94;;;-2.19;100.00
74169;BME280;62523;53.336;83.690;2023-12-22T15:47:05;100872.69;;;-2.23;100.00
74169;BME280;62523;53.336;83.690;2023-12-22T15:52:06;100871.78;;;-2.25;100.00
74169;BME280;62523;53.336;83.690;2023-12-22T15:57:08;100873.53;;;-2.23;100.00
74169;BME280;62523;53.336;83.690;2023-12-22T16:02:10;100875.31;;;-2.20;100.00
74169;BME280;62523;53.336;83.690;2023-12-22T16:07:11;100862.50;;;-2.16;100.00
74169;BME280;62523;53.336;83.690;2023-12-22T16:12:13;100869.19;;;-2.24;100.00
74169;BME280;62523;53.336;83.690;2023-12-22T16:17:14;100864.13;;;-2.21;100.00
74169;BME280;62523;53.336;83.690;2023-12-22T16:22:16;100862.66;;;-2.07;100.00
74169;BME280;62523;53.336;83.690;2023-12-22T16:27:17;100866.16;;;-2.04;100.00
74169;BME280;62523;53.336;83.690;2023-12-22T16:32:19;100858.19;;;-2.15;100.00
74169;BME280;62523;53.336;83.690;2023-12-22T16:37:22;100853.75;;;-2.22;100.00
74169;BME280;62523;53.336;83.690;2023-12-22T16:42:23;100852.13;;;-2.19;100.00
74169;BME280;62523;53.336;83.690;2023-12-22T16:47:26;100847.78;;;-2.20;100.00
74169;BME280;62523;53.336;83.690;2023-12-22T16:52:31;100853.06;;;-2.14;100.00
74169;BME280;62523;53.336;83.690;2023-12-22T16:57:34;100857.28;;;-2.19;100.00
74169;BME280;62523;53.336;83.690;2023-12-22T17:02:40;100861.72;;;-2.12;100.00
74169;BME280;62523;53.336;83.690;2023-12-22T17:07:42;100868.41;;;-2.21;100.00
74169;BME280;62523;53.336;83.690;2023-12-22T17:12:45;100866.81;;;-2.15;100.00
74169;BME280;62523;53.336;83.690;2023-12-22T17:17:47;100872.75;;;-2.19;100.00
74169;BME280;62523;53.336;83.690;2023-12-22T17:22:48;100867.72;;;-2.13;100.00
74169;BME280;62523;53.336;83.690;2023-12-22T17:27:50;100859.09;;;-2.15;100.00
74169;BME280;62523;53.336;83.690;2023-12-22T17:32:51;100853.19;;;-2.08;100.00
74169;BME280;62523;53.336;83.690;2023-12-22T17:37:53;100852.31;;;-2.08;100.00
74169;BME280;62523;53.336;83.690;2023-12-22T17:42:55;100846.25;;;-2.10;100.00
74169;BME280;62523;53.336;83.690;2023-12-22T17:47:56;100841.09;;;-2.10;100.00
74169;BME280;62523;53.336;83.690;2023-12-22T17:52:57;100848.94;;;-2.06;100.00
74169;BME280;62523;53.336;83.690;2023-12-22T17:57:59;100848.97;;;-2.02;100.00
74169;BME280;62523;53.336;83.690;2023-12-22T18:03:00;100848.97;;;-2.02;100.00
74169;BME280;62523;53.336;83.690;2023-12-22T18:08:02;100848.06;;;-2.06;100.00
74169;BME280;62523;53.336;83.690;2023-12-22T18:13:04;100848.88;;;-2.09;100.00
74169;BME280;62523;53.336;83.690;2023-12-22T18:18:05;100847.13;;;-2.10;100.00
74169;BME280;62523;53.336;83.690;2023-12-22T18:23:07;100848.97;;;-2.02;100.00
74169;BME280;62523;53.336;83.690;2023-12-22T18:28:08;100832.50;;;-2.09;100.00
74169;BME280;62523;53.336;83.690;2023-12-22T18:33:10;100833.44;;;-2.06;100.00
74169;BME280;62523;53.336;83.690;2023-12-22T18:38:12;100836.91;;;-2.03;100.00
74169;BME280;62523;53.336;83.690;2023-12-22T18:43:13;100839.41;;;-2.08;100.00
74169;BME280;62523;53.336;83.690;2023-12-22T18:48:15;100835.06;;;-2.09;100.00
74169;BME280;62523;53.336;83.690;2023-12-22T18:53:17;100835.88;;;-2.12;100.00
74169;BME280;62523;53.336;83.690;2023-12-22T18:58:20;100830.59;;;-2.18;100.00
74169;BME280;62523;53.336;83.690;2023-12-22T19:03:21;100835.84;;;-2.13;100.00
74169;BME280;62523;53.336;83.690;2023-12-22T19:08:23;100834.91;;;-2.18;100.00
74169;BME280;62523;53.336;83.690;2023-12-22T19:13:24;100836.50;;;-2.25;100.00
74169;BME280;62523;53.336;83.690;2023-12-22T19:18:26;100825.34;;;-2.22;100.00
74169;BME280;62523;53.336;83.690;2023-12-22T19:23:28;100833.09;;;-2.22;100.00
74169;BME280;62523;53.336;83.690;2023-12-22T19:28:29;100830.56;;;-2.21;100.00
74169;BME280;62523;53.336;83.690;2023-12-22T19:33:33;100824.56;;;-2.18;100.00
74169;BME280;62523;53.336;83.690;2023-12-22T19:38:35;100815.84;;;-2.25;100.00
74169;BME280;62523;53.336;83.690;2023-12-22T19:43:36;100829.63;;;-2.24;100.00
74169;BME280;62523;53.336;83.690;2023-12-22T19:48:38;100820.88;;;-2.31;100.00
74169;BME280;62523;53.336;83.690;2023-12-22T19:53:39;100822.66;;;-2.29;100.00
74169;BME280;62523;53.336;83.690;2023-12-22T19:58:40;100814.09;;;-2.28;100.00
74169;BME280;62523;53.336;83.690;2023-12-22T20:03:43;100813.13;;;-2.31;100.00
74169;BME280;62523;53.336;83.690;2023-12-22T20:08:44;100807.19;;;-2.27;100.00
74169;BME280;62523;53.336;83.690;2023-12-22T20:13:46;100805.47;;;-2.27;100.00
74169;BME280;62523;53.336;83.690;2023-12-22T20:18:47;100808.16;;;-2.22;100.00
74169;BME280;62523;53.336;83.690;2023-12-22T20:23:50;100812.44;;;-2.22;100.00
74169;BME280;62523;53.336;83.690;2023-12-22T20:28:52;100815.09;;;-2.19;100.00
74169;BME280;62523;53.336;83.690;2023-12-22T20:33:54;100804.81;;;-2.16;100.00
74169;BME280;62523;53.336;83.690;2023-12-22T20:38:55;100804.88;;;-2.15;100.00
74169;BME280;62523;53.336;83.690;2023-12-22T20:43:57;100804.88;;;-2.15;100.00
74169;BME280;62523;53.336;83.690;2023-12-22T20:48:58;100800.66;;;-2.10;100.00
74169;BME280;62523;53.336;83.690;2023-12-22T20:53:59;100803.06;;;-2.19;100.00
74169;BME280;62523;53.336;83.690;2023-12-22T20:59:01;100799.63;;;-2.18;100.00
74169;BME280;62523;53.336;83.690;2023-12-22T21:04:02;100792.94;;;-2.07;100.00
74169;BME280;62523;53.336;83.690;2023-12-22T21:09:04;100800.88;;;-1.97;100.00
74169;BME280;62523;53.336;83.690;2023-12-22T21:14:06;100807.69;;;-2.01;100.00
74169;BME280;62523;53.336;83.690;2023-12-22T21:19:10;100805.97;;;-2.00;100.00
74169;BME280;62523;53.336;83.690;2023-12-22T21:24:12;100795.63;;;-2.02;100.00
74169;BME280;62523;53.336;83.690;2023-12-22T21:29:13;100795.63;;;-2.02;100.00
74169;BME280;62523;53.336;83.690;2023-12-22T21:34:15;100793.13;;;-1.97;100.00
74169;BME280;62523;53.336;83.690;2023-12-22T21:39:17;100795.72;;;-1.96;100.00
74169;BME280;62523;53.336;83.690;2023-12-22T21:44:18;100788.78;;;-1.98;100.00
74169;BME280;62523;53.336;83.690;2023-12-22T21:49:19;100776.84;;;-1.92;100.00
74169;BME280;62523;53.336;83.690;2023-12-22T21:54:21;100783.69;;;-1.95;100.00
74169;BME280;62523;53.336;83.690;2023-12-22T21:59:25;100779.28;;;-2.01;100.00
74169;BME280;62523;53.336;83.690;2023-12-22T22:04:27;100779.25;;;-2.04;100.00
74169;BME280;62523;53.336;83.690;2023-12-22T22:09:29;100784.44;;;-2.01;100.00
74169;BME280;62523;53.336;83.690;2023-12-22T22:14:31;100783.63;;;-1.98;100.00
74169;BME280;62523;53.336;83.690;2023-12-22T22:19:32;100785.19;;;-2.08;100.00
74169;BME280;62523;53.336;83.690;2023-12-22T22:24:35;100784.25;;;-2.12;100.00
74169;BME280;62523;53.336;83.690;2023-12-22T22:29:37;100771.22;;;-2.18;100.00
74169;BME280;62523;53.336;83.690;2023-12-22T22:34:38;100769.38;;;-2.25;100.00
74169;BME280;62523;53.336;83.690;2023-12-22T22:39:41;100766.72;;;-2.30;100.00
74169;BME280;62523;53.336;83.690;2023-12-22T22:44:42;100771.78;;;-2.33;100.00
74169;BME280;62523;53.336;83.690;2023-12-22T22:49:44;100759.78;;;-2.31;100.00
74169;BME280;62523;53.336;83.690;2023-12-22T22:54:46;100763.06;;;-2.41;100.00
74169;BME280;62523;53.336;83.690;2023-12-22T22:59:48;100763.75;;;-2.48;100.00
74169;BME280;62523;53.336;83.690;2023-12-22T23:04:49;100741.28;;;-2.55;100.00
74169;BME280;62523;53.336;83.690;2023-12-22T23:09:50;100746.34;;;-2.58;100.00
74169;BME280;62523;53.336;83.690;2023-12-22T23:14:52;100753.22;;;-2.59;100.00
74169;BME280;62523;53.336;83.690;2023-12-22T23:19:53;100738.66;;;-2.57;100.00
74169;BME280;62523;53.336;83.690;2023-12-22T23:24:55;100740.97;;;-2.71;100.00
74169;BME280;62523;53.336;83.690;2023-12-22T23:29:56;100738.44;;;-2.68;100.00
74169;BME280;62523;53.336;83.690;2023-12-22T23:34:58;100725.44;;;-2.72;100.00
74169;BME280;62523;53.336;83.690;2023-12-22T23:40:00;100728.59;;;-2.87;100.00
74169;BME280;62523;53.336;83.690;2023-12-22T23:45:01;100731.91;;;-2.93;100.00
74169;BME280;62523;53.336;83.690;2023-12-22T23:50:04;100729.97;;;-3.03;100.00
74169;BME280;62523;53.336;83.690;2023-12-22T23:55:06;100738.69;;;-2.98;100.00
